Offutt Lake, Washington
Current Conditions -  °F | °C
As of 4:54 PM on Wednesday 26 Nov 2014 (Local Time) from KOLM Reporting Station
Broken Clouds Broken Clouds  
Wind Chill: 14°   Ceiling: 4100
Heat Index: 14°   Visibility: 10mi
Dew Point: 11°   Wind: 6mph
Humidity: 81%   Direction: 220°SW
Pressure: 29.98"   Gusts: NA
Location:  46.9755°N, 122.872°W
Report Text: KOLM 270054Z 22005KT 10SM BKN041 14/11 A2998 RMK AO2 SLP151 T01390106
Loading
Personal Weather Stations






























Interactive Weather Map New forecast layout! Learn more

10-Day Weather Forecast

Advertisements
Track Severe Weather on mobile